Time;durP1;ratioP1;P1;durP2;ratioP2;P2;SDS_P1;SDS_P2;PMS_P1;PMS_P2;Temp;Humidity;BMP_temperature;BMP_pressure;BME280_temperature;BME280_humidity;BME280_pressure;Samples;Min_cycle;Max_cycle;Signal;HPM_P1;HPM_P2
2023/08/29 00:02:14;;;;;;;;;;;;;;;24.99;64.55;96100.40;627016;226;66843;-60
2023/08/29 00:04:41;;;;;;;;;;;;;;;24.99;64.37;96103.09;626861;226;62768;-60
2023/08/29 00:07:09;;;;;;;;;;;;;;;24.99;64.73;96102.27;626263;226;67367;-59
2023/08/29 00:09:36;;;;;;;;;;;;;;;24.99;64.47;96099.59;625600;226;66857;-59
2023/08/29 00:12:04;;;;;;;;;;;;;;;24.98;64.16;96098.02;627499;226;64903;-60
2023/08/29 00:14:32;;;;;;;;;;;;;;;24.98;64.40;96106.08;626664;226;65041;-60
2023/08/29 00:16:59;;;;;;;;;;;;;;;24.98;64.75;96100.70;626546;226;64553;-59
2023/08/29 00:19:27;;;;;;;;;;;;;;;24.97;64.27;96105.30;620226;228;64674;-59
2023/08/29 00:21:54;;;;;;;;;;;;;;;24.98;64.71;96103.39;625394;226;67325;-59
2023/08/29 00:24:22;;;;;;;;;;;;;;;24.98;64.85;96106.08;626477;226;67179;-59
2023/08/29 00:26:49;;;;;;;;;;;;;;;24.97;65.04;96107.98;626691;226;64961;-58
2023/08/29 00:29:17;;;;;;;;;;;;;;;24.98;64.76;96106.08;626128;226;65890;-58
2023/08/29 00:31:45;;;;;;;;;;;;;;;24.97;65.01;96107.98;627018;226;66986;-58
2023/08/29 00:34:12;;;;;;;;;;;;;;;24.97;65.59;96099.13;627026;226;62807;-58
2023/08/29 00:36:40;;;;;;;;;;;;;;;24.97;63.96;96093.76;626826;226;65111;-58
2023/08/29 00:39:07;;;;;;;;;;;;;;;24.96;63.19;96094.84;626527;226;67179;-58
2023/08/29 00:41:35;;;;;;;;;;;;;;;24.98;64.85;96082.67;626483;226;62761;-58
2023/08/29 00:44:03;;;;;;;;;;;;;;;24.97;65.09;96091.07;626522;226;64423;-58
2023/08/29 00:46:30;;;;;;;;;;;;;;;24.96;64.88;96092.16;627385;226;67700;-59
2023/08/29 00:49:00;;;;;;;;;;;;;;;24.97;64.83;96083.01;625449;226;65750;-57
2023/08/29 00:51:27;;;;;;;;;;;;;;;24.97;65.43;96083.80;626457;223;67518;-59
2023/08/29 00:53:55;;;;;;;;;;;;;;;24.96;65.68;96090.29;626616;226;67628;-59
2023/08/29 00:56:23;;;;;;;;;;;;;;;24.96;64.74;96095.66;625782;226;63030;-59
2023/08/29 00:58:52;;;;;;;;;;;;;;;24.96;64.71;96087.59;625766;226;65909;-59
2023/08/29 01:01:20;;;;;;;;;;;;;;;24.96;65.41;96084.09;627277;226;65214;-60
2023/08/29 01:03:48;;;;;;;;;;;;;;;24.95;64.21;96088.69;627049;226;62717;-60
2023/08/29 01:06:16;;;;;;;;;;;;;;;24.95;65.16;96091.37;626670;226;65071;-60
2023/08/29 01:08:44;;;;;;;;;;;;;;;24.95;65.08;96094.06;626520;226;67035;-60
2023/08/29 01:11:16;;;;;;;;;;;;;;;24.96;65.10;96092.16;625655;226;62642;-60
2023/08/29 01:13:45;;;;;;;;;;;;;;;24.94;64.33;96089.03;627262;226;67151;-60
2023/08/29 01:16:13;;;;;;;;;;;;;;;24.96;65.42;96081.41;624472;226;67167;-60
2023/08/29 01:18:41;;;;;;;;;;;;;;;24.95;65.21;96083.31;626607;226;64989;-60
2023/08/29 01:21:13;;;;;;;;;;;;;;;24.94;64.42;96084.44;626482;226;67248;-60
2023/08/29 01:23:43;;;;;;;;;;;;;;;24.95;65.28;96082.53;623135;227;66362;-60
2023/08/29 01:26:13;;;;;;;;;;;;;;;24.95;65.60;96088.69;626574;226;62788;-59
2023/08/29 01:28:45;;;;;;;;;;;;;;;24.95;65.43;96091.37;625531;226;64921;-59
2023/08/29 01:31:14;;;;;;;;;;;;;;;24.95;65.93;96090.59;626405;226;66795;-59
2023/08/29 01:33:42;;;;;;;;;;;;;;;24.95;65.78;96074.47;627225;226;65017;-60
2023/08/29 01:36:10;;;;;;;;;;;;;;;24.95;66.00;96079.84;627164;226;67883;-60
2023/08/29 01:38:37;;;;;;;;;;;;;;;24.95;66.19;96079.84;626856;226;65802;-60
2023/08/29 01:41:05;;;;;;;;;;;;;;;24.94;66.43;96067.52;625536;226;65791;-60
2023/08/29 01:43:34;;;;;;;;;;;;;;;24.95;66.33;96069.09;625451;226;65825;-60
2023/08/29 01:46:02;;;;;;;;;;;;;;;24.94;66.12;96064.84;625426;226;67414;-59
2023/08/29 01:48:31;;;;;;;;;;;;;;;24.92;65.27;96062.45;626142;226;65775;-60
2023/08/29 01:50:58;;;;;;;;;;;;;;;24.93;65.54;96068.61;625162;226;67052;-60
2023/08/29 01:53:26;;;;;;;;;;;;;;;24.94;66.06;96067.52;619154;226;65041;-59
2023/08/29 01:55:54;;;;;;;;;;;;;;;24.93;66.28;96066.71;627486;226;65205;-59
2023/08/29 01:58:22;;;;;;;;;;;;;;;24.93;66.24;96073.98;626475;226;66900;-59
2023/08/29 02:00:50;;;;;;;;;;;;;;;24.92;66.02;96057.08;626772;226;64948;-59
2023/08/29 02:03:18;;;;;;;;;;;;;;;24.92;65.92;96064.36;626115;226;65030;-60
2023/08/29 02:05:46;;;;;;;;;;;;;;;24.92;66.37;96062.45;626455;226;65261;-60
2023/08/29 02:08:14;;;;;;;;;;;;;;;24.91;66.09;96058.20;625633;226;67106;-60
2023/08/29 02:10:41;;;;;;;;;;;;;;;24.92;65.86;96056.30;627494;226;62721;-60
2023/08/29 02:13:09;;;;;;;;;;;;;;;24.92;66.01;96058.98;626296;226;67367;-60
2023/08/29 02:15:37;;;;;;;;;;;;;;;24.91;66.27;96050.14;626594;226;67062;-60
2023/08/29 02:18:05;;;;;;;;;;;;;;;24.91;66.29;96050.14;626666;226;65033;-60
2023/08/29 02:20:32;;;;;;;;;;;;;;;24.91;65.78;96046.64;623665;225;67171;-59
2023/08/29 02:23:00;;;;;;;;;;;;;;;24.91;65.85;96042.08;620186;228;66849;-60
2023/08/29 02:25:28;;;;;;;;;;;;;;;24.91;66.15;96049.32;608039;233;65287;-59
2023/08/29 02:27:56;;;;;;;;;;;;;;;24.91;65.57;96054.70;601442;235;68130;-60
2023/08/29 02:30:23;;;;;;;;;;;;;;;24.91;65.70;96049.32;610796;229;64746;-59
2023/08/29 02:32:51;;;;;;;;;;;;;;;24.91;66.60;96050.14;611460;231;62451;-60
2023/08/29 02:35:18;;;;;;;;;;;;;;;24.90;66.04;96045.85;603717;231;67368;-60
2023/08/29 02:37:46;;;;;;;;;;;;;;;24.90;66.19;96040.48;602629;233;67032;-60
2023/08/29 02:40:14;;;;;;;;;;;;;;;24.90;66.38;96045.85;612519;230;65923;-59
2023/08/29 02:42:43;;;;;;;;;;;;;;;24.90;66.41;96043.16;611230;231;67371;-60
2023/08/29 02:45:11;;;;;;;;;;;;;;;24.91;66.62;96052.02;611295;231;64453;-59
2023/08/29 02:47:38;;;;;;;;;;;;;;;24.90;65.83;96050.44;611492;231;65827;-60
2023/08/29 02:50:06;;;;;;;;;;;;;;;24.89;66.51;96057.72;612129;231;67104;-60
2023/08/29 02:52:35;;;;;;;;;;;;;;;24.90;66.62;96050.44;612372;231;64539;-60
2023/08/29 02:55:04;;;;;;;;;;;;;;;24.89;65.61;96051.56;611594;232;65048;-60
2023/08/29 02:57:31;;;;;;;;;;;;;;;24.89;64.05;96059.63;611619;232;65141;-59
2023/08/29 02:59:59;;;;;;;;;;;;;;;24.90;64.24;96050.44;611643;232;64481;-60
2023/08/29 03:02:27;;;;;;;;;;;;;;;24.89;63.99;96054.25;609534;232;65638;-60
2023/08/29 03:04:54;;;;;;;;;;;;;;;24.88;63.70;96048.09;621887;226;67210;-59
2023/08/29 03:07:22;;;;;;;;;;;;;;;24.89;64.65;96049.66;629532;224;64446;-60
2023/08/29 03:09:50;;;;;;;;;;;;;;;24.89;64.98;96041.59;629890;225;65798;-60
2023/08/29 03:12:17;;;;;;;;;;;;;;;24.89;65.22;96041.59;628722;225;64442;-60
2023/08/29 03:14:45;;;;;;;;;;;;;;;24.90;66.31;96040.48;629479;225;66711;-60
2023/08/29 03:17:12;;;;;;;;;;;;;;;24.89;65.89;96044.28;627458;225;64970;-60
2023/08/29 03:19:40;;;;;;;;;;;;;;;24.89;66.62;96038.91;630154;225;64738;-60
2023/08/29 03:22:08;;;;;;;;;;;;;;;24.88;65.06;96042.72;629183;225;66771;-60
2023/08/29 03:24:35;;;;;;;;;;;;;;;24.88;65.04;96039.22;629798;225;63778;-60
2023/08/29 03:27:03;;;;;;;;;;;;;;;24.87;65.38;96033.06;627320;225;64445;-59
2023/08/29 03:29:30;;;;;;;;;;;;;;;24.88;65.47;96042.72;625003;226;66837;-60
2023/08/29 03:31:58;;;;;;;;;;;;;;;24.88;66.10;96031.97;620687;226;65048;-60
2023/08/29 03:34:26;;;;;;;;;;;;;;;24.88;66.06;96037.34;627449;225;64557;-60
2023/08/29 03:36:53;;;;;;;;;;;;;;;24.87;66.28;96037.65;630181;225;67252;-60
2023/08/29 03:39:21;;;;;;;;;;;;;;;24.86;66.36;96039.55;628860;225;62728;-60
2023/08/29 03:41:48;;;;;;;;;;;;;;;24.85;66.33;96027.20;627024;226;67367;-60
2023/08/29 03:44:16;;;;;;;;;;;;;;;24.86;66.59;96023.42;629852;225;64683;-60
2023/08/29 03:46:44;;;;;;;;;;;;;;;24.85;66.76;96027.20;628941;225;65805;-60
2023/08/29 03:49:11;;;;;;;;;;;;;;;24.84;66.29;96022.95;628176;225;64584;-59
2023/08/29 03:51:39;;;;;;;;;;;;;;;24.85;66.59;96024.52;628689;225;66972;-59
2023/08/29 03:54:07;;;;;;;;;;;;;;;24.85;66.71;96024.52;629619;225;62902;-58
2023/08/29 03:56:34;;;;;;;;;;;;;;;24.84;66.78;96028.33;628443;225;67294;-59
2023/08/29 03:59:04;;;;;;;;;;;;;;;24.83;66.72;96029.45;629196;225;66739;-59
2023/08/29 04:01:31;;;;;;;;;;;;;;;24.84;66.79;96031.02;627053;226;64870;-60
2023/08/29 04:03:59;;;;;;;;;;;;;;;24.83;66.81;96024.07;629585;225;64975;-60
2023/08/29 04:06:27;;;;;;;;;;;;;;;24.83;66.82;96028.63;629614;225;65003;-60
2023/08/29 04:08:54;;;;;;;;;;;;;;;24.83;66.96;96026.76;627301;226;64872;-60
2023/08/29 04:11:22;;;;;;;;;;;;;;;24.83;66.87;96023.26;629389;225;64991;-60
2023/08/29 04:13:49;;;;;;;;;;;;;;;24.82;66.75;96022.47;629022;224;67117;-60
2023/08/29 04:16:17;;;;;;;;;;;;;;;24.82;66.86;96017.09;628977;225;66078;-60
2023/08/29 04:18:45;;;;;;;;;;;;;;;24.82;66.81;96017.09;628913;225;65090;-60
2023/08/29 04:21:12;;;;;;;;;;;;;;;24.82;66.83;96014.41;629045;225;67223;-60
2023/08/29 04:23:40;;;;;;;;;;;;;;;24.82;66.90;96014.41;630272;225;65043;-60
2023/08/29 04:26:08;;;;;;;;;;;;;;;24.81;66.89;96016.31;629621;225;64678;-60
2023/08/29 04:28:35;;;;;;;;;;;;;;;24.81;66.99;96010.16;628565;225;67072;-59
2023/08/29 04:31:10;;;;;;;;;;;;;;;24.81;66.87;96012.84;629991;225;62555;-58
2023/08/29 04:33:38;;;;;;;;;;;;;;;24.81;66.82;96018.22;628420;225;67424;-59
2023/08/29 04:36:06;;;;;;;;;;;;;;;24.80;66.97;96009.38;627691;225;67039;-58
2023/08/29 04:38:34;;;;;;;;;;;;;;;24.80;66.89;96009.38;629770;225;65022;-59
2023/08/29 04:41:03;;;;;;;;;;;;;;;24.81;66.88;96007.47;628248;225;67414;-59
2023/08/29 04:43:31;;;;;;;;;;;;;;;24.80;66.89;96005.91;627096;226;64755;-59
2023/08/29 04:46:00;;;;;;;;;;;;;;;24.80;66.92;95997.84;628379;225;64971;-59
2023/08/29 04:48:28;;;;;;;;;;;;;;;24.80;66.97;95997.84;621514;225;67921;-60
2023/08/29 04:50:55;;;;;;;;;;;;;;;24.79;66.83;95999.72;630075;225;64530;-59
2023/08/29 04:53:24;;;;;;;;;;;;;;;24.80;66.97;96004.00;629870;225;65782;-60
2023/08/29 04:55:53;;;;;;;;;;;;;;;24.79;66.96;95998.94;627399;225;64975;-59
2023/08/29 04:58:21;;;;;;;;;;;;;;;24.80;66.91;95997.84;628559;225;67966;-59
2023/08/29 05:00:50;;;;;;;;;;;;;;;24.79;66.91;96006.99;629293;225;64986;-60
2023/08/29 05:03:18;;;;;;;;;;;;;;;24.79;67.00;96001.62;629354;225;67150;-59
2023/08/29 05:05:46;;;;;;;;;;;;;;;24.79;66.87;95997.03;628724;225;64668;-59
2023/08/29 05:08:15;;;;;;;;;;;;;;;24.79;66.84;95996.25;628490;225;65106;-60
2023/08/29 05:10:43;;;;;;;;;;;;;;;24.79;66.92;95996.25;628903;225;67185;-60
2023/08/29 05:13:11;;;;;;;;;;;;;;;24.78;66.97;95987.41;629438;225;66848;-59
2023/08/29 05:15:39;;;;;;;;;;;;;;;24.78;66.91;95997.37;628280;225;62515;-59
2023/08/29 05:18:07;;;;;;;;;;;;;;;24.78;67.02;95990.09;628972;225;67424;-59
2023/08/29 05:20:34;;;;;;;;;;;;;;;24.78;66.99;95994.68;628949;225;67307;-59
2023/08/29 05:23:03;;;;;;;;;;;;;;;24.79;67.05;96001.62;628504;225;63031;-59
2023/08/29 05:25:31;;;;;;;;;;;;;;;24.78;67.19;96000.05;612747;230;67201;-59
2023/08/29 05:27:58;;;;;;;;;;;;;;;24.78;67.00;95992.77;625373;226;64881;-59
2023/08/29 05:30:26;;;;;;;;;;;;;;;24.78;66.99;96000.05;628604;225;63656;-59
2023/08/29 05:32:54;;;;;;;;;;;;;;;24.78;67.06;95983.94;629689;225;65009;-60
2023/08/29 05:35:22;;;;;;;;;;;;;;;24.78;67.04;95989.30;629596;224;66866;-59
2023/08/29 05:37:49;;;;;;;;;;;;;;;24.78;67.09;95994.68;628621;225;65051;-59
2023/08/29 05:40:17;;;;;;;;;;;;;;;24.78;67.17;96000.05;627166;225;66754;-59
2023/08/29 05:42:44;;;;;;;;;;;;;;;24.78;67.14;95991.99;628527;225;66886;-59
2023/08/29 05:45:12;;;;;;;;;;;;;;;24.77;67.25;95988.52;627256;225;65120;-59
2023/08/29 05:47:39;;;;;;;;;;;;;;;24.78;67.26;95995.46;628988;225;67278;-59
2023/08/29 05:50:08;;;;;;;;;;;;;;;24.77;67.33;95987.70;630333;225;66975;-59
2023/08/29 05:52:35;;;;;;;;;;;;;;;24.77;67.20;95988.52;629773;225;62978;-59
2023/08/29 05:55:03;;;;;;;;;;;;;;;24.78;67.26;95986.62;629058;225;65094;-58
2023/08/29 05:57:31;;;;;;;;;;;;;;;24.77;67.27;95980.46;628568;225;66964;-68
2023/08/29 05:59:58;;;;;;;;;;;;;;;24.78;67.31;95967.81;629548;225;64827;-69
2023/08/29 06:02:26;;;;;;;;;;;;;;;24.77;67.31;95977.77;629764;225;64846;-64
2023/08/29 06:04:54;;;;;;;;;;;;;;;24.78;67.00;95962.44;629999;225;67051;-65
2023/08/29 06:07:21;;;;;;;;;;;;;;;24.78;66.88;95975.87;630052;225;64893;-67
2023/08/29 06:09:49;;;;;;;;;;;;;;;24.77;67.29;95967.03;629483;225;67367;-68
2023/08/29 06:12:16;;;;;;;;;;;;;;;24.77;67.25;95964.34;630256;225;64776;-69
2023/08/29 06:14:44;;;;;;;;;;;;;;;24.78;67.19;95975.87;629330;225;65071;-68
2023/08/29 06:17:11;;;;;;;;;;;;;;;24.78;67.09;95973.19;626627;225;67098;-69
2023/08/29 06:19:39;;;;;;;;;;;;;;;24.78;67.19;95978.56;620361;228;64968;-66
2023/08/29 06:22:06;;;;;;;;;;;;;;;24.78;67.22;95973.97;620608;227;62749;-65
2023/08/29 06:24:34;;;;;;;;;;;;;;;24.79;65.54;95966.69;620343;228;66806;-65
2023/08/29 06:27:01;;;;;;;;;;;;;;;24.81;64.61;95959.11;622108;227;64326;-62
2023/08/29 06:29:29;;;;;;;;;;;;;;;24.82;62.35;95968.73;615539;228;62822;-65
2023/08/29 06:31:56;;;;;;;;;;;;;;;24.85;61.98;95961.92;622251;227;67239;-66
2023/08/29 06:34:24;;;;;;;;;;;;;;;24.85;63.63;95951.96;620262;227;65211;-64
2023/08/29 06:36:51;;;;;;;;;;;;;;;24.86;61.94;95958.15;621855;228;64762;-65
2023/08/29 06:39:19;;;;;;;;;;;;;;;24.86;61.91;95958.15;621864;228;64713;-65
2023/08/29 06:41:47;;;;;;;;;;;;;;;24.86;62.12;95958.15;621808;228;67237;-66
2023/08/29 06:44:14;;;;;;;;;;;;;;;24.86;62.29;95958.15;611481;228;66687;-66
2023/08/29 06:46:42;;;;;;;;;;;;;;;24.86;62.62;95944.72;621618;228;65101;-66
2023/08/29 06:49:09;;;;;;;;;;;;;;;24.86;62.67;95947.41;620454;227;64818;-66
2023/08/29 06:51:37;;;;;;;;;;;;;;;24.86;62.61;95947.41;621907;228;62777;-64
2023/08/29 06:54:05;;;;;;;;;;;;;;;24.86;62.64;95947.41;620426;227;66620;-64
2023/08/29 06:56:32;;;;;;;;;;;;;;;24.86;62.64;95953.56;621488;228;66901;-72
2023/08/29 06:58:59;;;;;;;;;;;;;;;24.87;62.68;95948.97;619390;228;64843;-59
2023/08/29 07:01:27;;;;;;;;;;;;;;;24.86;62.93;95953.56;621622;228;65040;-59
2023/08/29 07:03:55;;;;;;;;;;;;;;;24.87;63.01;95947.06;621648;227;66902;-59
2023/08/29 07:06:22;;;;;;;;;;;;;;;24.86;63.08;95950.09;621690;227;64885;-59
2023/08/29 07:08:50;;;;;;;;;;;;;;;24.85;63.06;95951.96;617729;228;67343;-59
2023/08/29 07:11:17;;;;;;;;;;;;;;;24.86;63.08;95953.56;622092;226;66905;-63
2023/08/29 07:13:45;;;;;;;;;;;;;;;24.87;63.12;95951.66;627605;226;64980;-64
2023/08/29 07:16:13;;;;;;;;;;;;;;;24.86;63.26;95948.19;627548;226;64326;-65
2023/08/29 07:18:40;;;;;;;;;;;;;;;24.86;63.38;95950.88;626695;226;66828;-66
2023/08/29 07:21:09;;;;;;;;;;;;;;;24.87;63.53;95954.34;625522;226;62878;-66
2023/08/29 07:23:37;;;;;;;;;;;;;;;24.86;63.50;95956.25;626526;226;66909;-58
2023/08/29 07:26:04;;;;;;;;;;;;;;;24.86;63.60;95956.25;625790;226;66698;-64
2023/08/29 07:28:32;;;;;;;;;;;;;;;24.87;63.60;95955.13;626045;226;65188;-64
2023/08/29 07:31:00;;;;;;;;;;;;;;;24.86;63.69;95958.15;623051;226;66901;-60
2023/08/29 07:33:27;;;;;;;;;;;;;;;24.85;63.55;95951.96;619969;228;66870;-60
2023/08/29 07:35:55;;;;;;;;;;;;;;;24.86;63.66;95950.09;620945;228;65324;-60
2023/08/29 07:38:23;;;;;;;;;;;;;;;24.87;62.96;95948.97;619773;229;66713;-60
2023/08/29 07:40:50;;;;;;;;;;;;;;;24.88;63.11;95954.03;619867;229;64079;-60
2023/08/29 07:43:18;;;;;;;;;;;;;;;24.89;63.31;95955.59;619841;229;64971;-61
2023/08/29 07:45:47;;;;;;;;;;;;;;;24.89;63.42;95952.91;617909;229;68102;-60
2023/08/29 07:48:15;;;;;;;;;;;;;;;24.90;63.55;95959.07;617359;229;67189;-61
2023/08/29 07:50:42;;;;;;;;;;;;;;;24.91;63.59;95958.77;619101;229;62786;-62
2023/08/29 07:53:10;;;;;;;;;;;;;;;24.91;63.58;95961.45;620174;228;64853;-63
2023/08/29 07:55:37;;;;;;;;;;;;;;;24.91;63.48;95958.77;619838;229;64782;-61
2023/08/29 07:58:05;;;;;;;;;;;;;;;24.91;63.53;95956.08;619812;229;63620;-61
2023/08/29 08:00:32;;;;;;;;;;;;;;;24.92;63.57;95957.64;619715;229;65765;-61
2023/08/29 08:03:00;;;;;;;;;;;;;;;24.94;63.66;95965.39;619863;229;65898;-64
2023/08/29 08:05:28;;;;;;;;;;;;;;;24.92;63.79;95954.95;619879;229;62765;-65
2023/08/29 08:07:56;;;;;;;;;;;;;;;24.93;63.59;95961.89;618856;229;64507;-65
2023/08/29 08:10:24;;;;;;;;;;;;;;;24.94;63.66;95954.64;618655;229;66975;-63
2023/08/29 08:12:51;;;;;;;;;;;;;;;24.95;63.58;95970.43;617743;229;63826;-67
2023/08/29 08:15:20;;;;;;;;;;;;;;;24.95;63.65;95973.12;619303;229;67251;-66
2023/08/29 08:17:48;;;;;;;;;;;;;;;24.95;63.69;95965.05;617980;229;66863;-64
2023/08/29 08:20:15;;;;;;;;;;;;;;;24.96;63.86;95958.59;619859;228;65064;-66
2023/08/29 08:22:43;;;;;;;;;;;;;;;24.97;63.78;95967.44;619203;228;67182;-64
2023/08/29 08:25:10;;;;;;;;;;;;;;;24.96;63.61;95955.90;619805;229;66942;-65
2023/08/29 08:27:40;;;;;;;;;;;;;;;24.96;63.47;95958.59;619772;229;66026;-65
2023/08/29 08:30:13;;;;;;;;;;;;;;;24.96;63.43;95955.90;619824;229;67303;-67
2023/08/29 08:32:37;;;;;;;;;;;;;;;24.98;63.66;95963.63;619532;228;67105;-64
2023/08/29 08:35:05;;;;;;;;;;;;;;;24.98;63.42;95956.34;619798;229;63051;-66
2023/08/29 08:37:34;;;;;;;;;;;;;;;24.98;63.61;95950.97;619871;229;67230;-64
2023/08/29 08:40:09;;;;;;;;;;;;;;;24.98;63.30;95950.97;619869;229;64844;-64
2023/08/29 08:42:30;;;;;;;;;;;;;;;24.98;63.56;95950.97;619508;228;62706;-65
2023/08/29 08:44:58;;;;;;;;;;;;;;;24.99;63.04;95957.94;619366;228;64880;-65
2023/08/29 08:47:25;;;;;;;;;;;;;;;24.99;63.04;95955.25;620553;228;64852;-65
2023/08/29 08:49:53;;;;;;;;;;;;;;;24.99;62.99;95955.25;620210;228;63013;-65
2023/08/29 08:52:21;;;;;;;;;;;;;;;25.00;62.91;95948.75;619651;229;67346;-68
2023/08/29 08:54:48;;;;;;;;;;;;;;;25.00;62.73;95959.51;619789;229;66797;-67
2023/08/29 08:57:16;;;;;;;;;;;;;;;25.01;62.46;95938.78;619116;228;65137;-70
2023/08/29 08:59:43;;;;;;;;;;;;;;;25.00;62.69;95943.38;619099;229;67226;-70
2023/08/29 09:02:14;;;;;;;;;;;;;;;25.00;62.75;95940.69;620332;228;68181;-70
2023/08/29 09:04:42;;;;;;;;;;;;;;;25.01;62.40;95936.10;619753;229;64992;-70
2023/08/29 09:07:09;;;;;;;;;;;;;;;25.01;62.99;95944.95;618674;228;65821;-69
2023/08/29 09:09:37;;;;;;;;;;;;;;;25.01;62.91;95944.16;620442;228;64861;-70
2023/08/29 09:12:05;;;;;;;;;;;;;;;25.02;63.23;95945.76;622144;226;62732;-69
2023/08/29 09:14:32;;;;;;;;;;;;;;;25.01;63.26;95939.57;620112;228;66997;-70
2023/08/29 09:17:01;;;;;;;;;;;;;;;25.02;62.23;95945.76;620760;228;66991;-70
2023/08/29 09:19:35;;;;;;;;;;;;;;;25.02;61.79;95945.76;615805;226;63059;-70
2023/08/29 09:22:02;;;;;;;;;;;;;;;25.02;61.63;95951.13;617689;226;66906;-70
2023/08/29 09:24:32;;;;;;;;;;;;;;;25.03;61.14;95947.33;622221;225;66916;-69
2023/08/29 09:27:00;;;;;;;;;;;;;;;25.03;60.09;95942.73;625689;226;64865;-67
2023/08/29 09:29:29;;;;;;;;;;;;;;;25.04;57.72;95956.95;625937;226;64949;-66
2023/08/29 09:31:58;;;;;;;;;;;;;;;25.11;58.11;95945.72;625878;226;66901;-68
2023/08/29 09:34:32;;;;;;;;;;;;;;;25.11;59.93;95945.72;627731;226;65274;-65
2023/08/29 09:37:00;;;;;;;;;;;;;;;25.14;57.84;95953.91;625362;226;64734;-65
2023/08/29 09:39:27;;;;;;;;;;;;;;;25.16;56.87;95953.63;626764;226;64504;-65
2023/08/29 09:41:59;;;;;;;;;;;;;;;25.14;57.31;95953.13;627088;226;65189;-65
2023/08/29 09:44:27;;;;;;;;;;;;;;;25.13;61.04;95946.97;626408;226;67199;-65
2023/08/29 09:46:55;;;;;;;;;;;;;;;25.10;61.61;95944.12;626602;226;67288;-66
2023/08/29 09:49:22;;;;;;;;;;;;;;;25.08;61.36;95938.30;627718;226;64876;-66
2023/08/29 09:51:50;;;;;;;;;;;;;;;25.08;61.41;95940.99;625287;226;66997;-65
2023/08/29 09:54:19;;;;;;;;;;;;;;;25.07;60.55;95923.27;620811;226;66868;-66
2023/08/29 09:56:48;;;;;;;;;;;;;;;25.07;60.90;95931.33;619856;229;65102;-66
2023/08/29 09:59:17;;;;;;;;;;;;;;;25.06;61.50;95929.77;619461;228;67225;-65
2023/08/29 10:01:45;;;;;;;;;;;;;;;25.06;60.78;95924.39;620079;228;64698;-64
2023/08/29 10:04:14;;;;;;;;;;;;;;;25.06;61.17;95919.02;620783;228;64940;-65
2023/08/29 10:06:44;;;;;;;;;;;;;;;25.06;61.32;95919.02;619780;229;67312;-66
2023/08/29 10:09:12;;;;;;;;;;;;;;;25.05;61.76;95920.13;619261;228;66727;-65
2023/08/29 10:11:40;;;;;;;;;;;;;;;25.04;61.99;95919.32;624246;225;63024;-65
2023/08/29 10:14:09;;;;;;;;;;;;;;;25.05;61.72;95917.45;621648;226;65091;-64
2023/08/29 10:16:38;;;;;;;;;;;;;;;25.04;61.77;95913.95;624015;225;65079;-65
2023/08/29 10:19:05;;;;;;;;;;;;;;;25.04;62.25;95919.32;620828;226;62755;-65
2023/08/29 10:21:33;;;;;;;;;;;;;;;25.04;61.42;95911.26;620035;228;64855;-66
2023/08/29 10:24:03;;;;;;;;;;;;;;;25.05;61.51;95906.69;621147;228;66905;-68
2023/08/29 10:26:30;;;;;;;;;;;;;;;25.05;61.77;95906.69;615619;228;62750;-66
2023/08/29 10:28:58;;;;;;;;;;;;;;;25.05;61.38;95912.07;621460;227;64931;-66
2023/08/29 10:31:26;;;;;;;;;;;;;;;25.06;61.46;95916.33;621448;228;65067;-66
2023/08/29 10:33:55;;;;;;;;;;;;;;;25.05;61.76;95917.45;620057;228;65196;-66
2023/08/29 10:36:24;;;;;;;;;;;;;;;25.06;61.96;95924.39;621265;228;66848;-67
2023/08/29 10:38:53;;;;;;;;;;;;;;;25.06;61.82;95919.02;621459;228;65027;-61
2023/08/29 10:41:20;;;;;;;;;;;;;;;25.06;61.17;95913.64;620040;228;65131;-60
2023/08/29 10:43:50;;;;;;;;;;;;;;;25.06;61.15;95916.33;621428;228;66081;-64
2023/08/29 10:46:18;;;;;;;;;;;;;;;25.07;60.47;95909.83;621520;228;66885;-69
2023/08/29 10:48:47;;;;;;;;;;;;;;;25.06;60.44;95917.11;621332;227;65050;-67
2023/08/29 10:51:15;;;;;;;;;;;;;;;25.09;60.35;95921.05;621784;227;65588;-69
2023/08/29 10:53:45;;;;;;;;;;;;;;;25.10;61.91;95914.55;620185;228;66914;-68
2023/08/29 10:56:13;;;;;;;;;;;;;;;25.09;61.55;95913.77;617978;228;64886;-68
2023/08/29 10:58:42;;;;;;;;;;;;;;;25.10;59.48;95906.48;621277;225;67194;-69
2023/08/29 11:01:39;;;;;;;;;;;;;;;25.11;62.82;95910.77;621727;227;67042;-68
2023/08/29 11:04:14;;;;;;;;;;;;;;;25.10;62.60;95904.61;620910;227;62858;-69
2023/08/29 11:06:53;;;;;;;;;;;;;;;25.10;64.46;95907.30;621412;228;66991;-69
2023/08/29 11:09:23;;;;;;;;;;;;;;;25.08;63.39;95903.36;621239;228;67039;-69
2023/08/29 11:12:12;;;;;;;;;;;;;;;25.08;63.57;95904.14;622467;227;65352;-69
2023/08/29 11:14:41;;;;;;;;;;;;;;;25.05;56.63;95894.04;622130;227;65824;-69
2023/08/29 11:17:12;;;;;;;;;;;;;;;25.09;56.21;95896.86;614661;226;66933;-69
2023/08/29 11:19:41;;;;;;;;;;;;;;;25.10;56.40;95893.86;618950;227;65092;-66
2023/08/29 11:22:09;;;;;;;;;;;;;;;25.11;55.42;95895.42;622247;225;67035;-65
2023/08/29 11:24:36;;;;;;;;;;;;;;;25.12;55.49;95885.45;629735;225;66311;-64
2023/08/29 11:27:04;;;;;;;;;;;;;;;25.12;61.47;95888.14;622073;225;64940;-64
2023/08/29 11:29:37;;;;;;;;;;;;;;;25.10;61.75;95885.80;619411;227;66914;-68
2023/08/29 11:32:06;;;;;;;;;;;;;;;25.09;60.30;95878.82;619278;225;66772;-67
2023/08/29 11:34:35;;;;;;;;;;;;;;;25.08;58.97;95874.57;614843;228;65064;-69
2023/08/29 11:37:04;;;;;;;;;;;;;;;25.08;58.29;95877.26;620472;228;64536;-68
2023/08/29 11:39:31;;;;;;;;;;;;;;;25.10;59.41;95882.29;616517;228;64570;-67
2023/08/29 11:41:59;;;;;;;;;;;;;;;25.09;57.59;95867.28;618489;229;62881;-67
2023/08/29 11:44:32;;;;;;;;;;;;;;;25.10;58.22;95863.47;625873;225;64303;-66
2023/08/29 11:46:59;;;;;;;;;;;;;;;25.10;56.38;95871.53;627355;224;66743;-67
2023/08/29 11:49:26;;;;;;;;;;;;;;;25.10;55.66;95863.47;629508;225;65000;-66
2023/08/29 11:51:54;;;;;;;;;;;;;;;25.10;56.00;95861.59;629405;225;66663;-67
2023/08/29 11:54:41;;;;;;;;;;;;;;;25.12;56.57;95858.56;627517;226;64934;-64
2023/08/29 11:57:10;;;;;;;;;;;;;;;25.13;57.06;95854.78;629455;225;65370;-68
2023/08/29 11:59:39;;;;;;;;;;;;;;;25.13;60.34;95850.19;629555;225;67547;-63
2023/08/29 12:02:09;;;;;;;;;;;;;;;25.12;61.00;95863.95;629879;225;67418;-63
2023/08/29 12:04:44;;;;;;;;;;;;;;;25.11;60.86;95848.94;629744;225;62707;-68
2023/08/29 12:07:13;;;;;;;;;;;;;;;25.11;60.40;95854.31;620848;225;67206;-66
2023/08/29 12:09:45;;;;;;;;;;;;;;;25.11;61.86;95862.37;620101;228;66981;-67
2023/08/29 12:12:11;;;;;;;;;;;;;;;25.09;61.54;95851.94;618695;228;65068;-68
2023/08/29 12:14:51;;;;;;;;;;;;;;;25.09;58.55;95857.31;618625;228;67004;-63
2023/08/29 12:17:19;;;;;;;;;;;;;;;25.10;61.03;95858.09;618865;228;67249;-65
2023/08/29 12:19:50;;;;;;;;;;;;;;;25.10;60.15;95844.66;620386;228;62797;-67
2023/08/29 12:22:19;;;;;;;;;;;;;;;25.12;62.63;95855.88;619733;229;67079;-66
2023/08/29 12:24:54;;;;;;;;;;;;;;;25.10;61.92;95844.66;619465;228;64811;-65
2023/08/29 12:27:22;;;;;;;;;;;;;;;25.10;59.01;95850.84;619817;229;65073;-65
2023/08/29 12:29:50;;;;;;;;;;;;;;;25.10;61.44;95845.47;619069;228;64723;-63
2023/08/29 12:32:17;;;;;;;;;;;;;;;25.11;62.29;95840.88;617160;229;65651;-65
2023/08/29 12:34:45;;;;;;;;;;;;;;;25.15;55.86;95841.81;618939;229;65176;-66
2023/08/29 12:37:13;;;;;;;;;;;;;;;25.17;58.25;95844.97;620201;228;67038;-61
2023/08/29 12:39:41;;;;;;;;;;;;;;;25.21;55.04;95840.53;618937;229;64442;-66
2023/08/29 12:42:08;;;;;;;;;;;;;;;25.20;55.06;95828.19;622404;226;65202;-64
2023/08/29 12:44:36;;;;;;;;;;;;;;;25.21;55.94;95846.69;622985;226;70025;-64
2023/08/29 12:47:04;;;;;;;;;;;;;;;25.21;56.74;95835.16;620468;226;68489;-63
2023/08/29 12:49:32;;;;;;;;;;;;;;;25.22;54.33;95834.03;622648;226;65008;-63
2023/08/29 12:51:59;;;;;;;;;;;;;;;25.23;53.81;95839.06;623246;225;67961;-62
2023/08/29 12:54:28;;;;;;;;;;;;;;;25.24;53.60;95835.28;623297;226;66895;-63